createdAt,value
2019-05-16T00:00:40.585Z,1.90
2019-05-16T00:03:30.349Z,4.13
2019-05-16T00:06:20.437Z,3.87
2019-05-16T00:09:10.547Z,2.10
2019-05-16T00:12:00.284Z,5.63
2019-05-16T00:14:52.819Z,3.87
2019-05-16T00:17:42.901Z,2.20
2019-05-16T00:20:32.681Z,2.80
2019-05-16T00:23:23.221Z,5.03
2019-05-16T00:26:13.598Z,2.80
2019-05-16T00:29:03.866Z,3.00
2019-05-16T00:31:53.771Z,5.90
2019-05-16T00:34:43.477Z,3.20
2019-05-16T00:37:33.392Z,4.83
2019-05-16T00:40:23.488Z,6.10
2019-05-16T00:43:13.435Z,3.00
2019-05-16T00:46:03.326Z,5.73
2019-05-16T00:48:53.268Z,3.27
2019-05-16T00:51:43.749Z,2.97
2019-05-16T00:54:34.201Z,6.47
2019-05-16T00:57:25.104Z,6.00
2019-05-16T01:00:18.031Z,8.97
2019-05-16T01:03:08.121Z,2.97
2019-05-16T01:05:58.261Z,3.83
2019-05-16T01:08:48.861Z,5.63
2019-05-16T01:11:38.523Z,9.87
2019-05-16T01:14:28.400Z,7.83
2019-05-16T01:17:18.384Z,5.63
2019-05-16T01:20:09.167Z,6.33
2019-05-16T01:22:59.632Z,10.20
2019-05-16T01:25:49.751Z,3.67
2019-05-16T01:28:39.393Z,5.37
2019-05-16T01:31:29.132Z,4.10
2019-05-16T01:34:19.099Z,6.40
2019-05-16T01:37:14.839Z,3.83
2019-05-16T01:40:08.138Z,5.53
2019-05-16T01:42:58.228Z,4.37
2019-05-16T01:45:48.901Z,3.80
2019-05-16T01:48:39.069Z,6.10
2019-05-16T01:51:28.977Z,2.63
2019-05-16T01:54:19.546Z,2.20
2019-05-16T01:57:09.441Z,6.07
2019-05-16T01:59:59.732Z,5.10
2019-05-16T02:02:49.883Z,4.20
2019-05-16T02:05:40.845Z,2.00
2019-05-16T02:08:30.603Z,4.27
2019-05-16T02:11:20.438Z,6.00
2019-05-16T02:14:10.294Z,4.17
2019-05-16T02:17:00.441Z,1.83
2019-05-16T02:19:50.197Z,1.93
2019-05-16T02:22:40.059Z,5.83
2019-05-16T02:25:29.928Z,2.93
2019-05-16T02:28:23.712Z,4.20
2019-05-16T02:31:15.446Z,3.50
2019-05-16T02:34:04.930Z,2.60
2019-05-16T02:37:14.671Z,3.63
2019-05-16T02:39:46.927Z,3.23
2019-05-16T02:42:37.014Z,5.90
2019-05-16T02:45:27.065Z,4.10
2019-05-16T02:48:17.042Z,5.50
2019-05-16T02:51:06.683Z,3.10
2019-05-16T02:53:56.895Z,4.30
2019-05-16T02:56:46.799Z,3.47
2019-05-16T02:59:37.169Z,4.60
2019-05-16T03:02:31.032Z,4.27
2019-05-16T03:05:20.775Z,7.10
2019-05-16T03:08:13.084Z,2.87
2019-05-16T03:11:04.021Z,4.77
2019-05-16T03:13:55.831Z,8.13
2019-05-16T03:16:50.599Z,6.33
2019-05-16T03:19:43.403Z,11.83
2019-05-16T03:22:33.634Z,8.70
2019-05-16T03:25:23.605Z,3.53
2019-05-16T03:28:13.610Z,3.10
2019-05-16T03:31:05.298Z,6.83
2019-05-16T03:33:59.297Z,6.13
2019-05-16T03:36:45.910Z,3.90
2019-05-16T03:39:35.724Z,6.13
2019-05-16T03:42:25.319Z,6.60
2019-05-16T03:45:15.548Z,4.60
2019-05-16T03:48:05.648Z,6.20
2019-05-16T03:50:55.915Z,6.97
2019-05-16T03:53:45.957Z,6.93
2019-05-16T03:56:35.800Z,3.77
2019-05-16T03:59:25.708Z,6.57
2019-05-16T04:02:15.652Z,5.20
2019-05-16T04:05:05.960Z,4.07
2019-05-16T04:08:10.400Z,8.43
2019-05-16T04:10:47.489Z,5.80
2019-05-16T04:13:40.817Z,10.93
2019-05-16T04:16:31.290Z,4.67
2019-05-16T04:19:21.390Z,6.03
2019-05-16T04:22:16.231Z,8.13
2019-05-16T04:25:07.195Z,6.70
2019-05-16T04:27:57.316Z,5.63
2019-05-16T04:30:47.184Z,5.83
2019-05-16T04:33:37.403Z,12.30
2019-05-16T04:36:27.166Z,6.23
2019-05-16T04:39:16.996Z,5.43
2019-05-16T04:42:06.550Z,6.37
2019-05-16T04:44:56.115Z,6.20
2019-05-16T04:47:45.956Z,6.83
2019-05-16T04:50:36.404Z,4.67
2019-05-16T04:53:26.381Z,6.23
2019-05-16T04:56:16.374Z,4.13
2019-05-16T04:59:06.246Z,12.03
2019-05-16T05:01:56.366Z,4.23
2019-05-16T05:04:46.273Z,10.47
2019-05-16T05:07:36.241Z,4.97
2019-05-16T05:10:26.631Z,5.90
2019-05-16T05:13:16.385Z,4.47
2019-05-16T05:16:05.817Z,4.30
2019-05-16T05:18:55.712Z,4.40
2019-05-16T05:21:45.518Z,9.53
2019-05-16T05:24:35.533Z,8.90
2019-05-16T05:27:25.233Z,14.80
2019-05-16T05:30:16.199Z,4.77
2019-05-16T05:33:07.098Z,6.93
2019-05-16T05:35:57.098Z,8.13
2019-05-16T05:38:49.099Z,4.10
2019-05-16T05:41:40.150Z,5.70
2019-05-16T05:44:30.694Z,4.73
2019-05-16T05:47:20.567Z,6.10
2019-05-16T05:50:12.357Z,5.30
2019-05-16T05:53:02.373Z,5.47
2019-05-16T05:55:52.449Z,4.67
2019-05-16T05:58:42.469Z,5.77
2019-05-16T06:01:33.313Z,5.90
2019-05-16T06:04:22.647Z,4.20
2019-05-16T06:07:12.189Z,6.10
2019-05-16T06:10:02.130Z,7.93
2019-05-16T06:12:51.938Z,5.83
2019-05-16T06:15:41.972Z,4.83
2019-05-16T06:18:32.018Z,6.00
2019-05-16T06:21:22.077Z,5.43
2019-05-16T06:24:11.904Z,7.00
2019-05-16T06:27:01.125Z,7.10
2019-05-16T06:29:50.998Z,6.13
2019-05-16T06:32:40.816Z,10.63
2019-05-16T06:35:30.313Z,7.50
2019-05-16T06:38:21.507Z,4.33
2019-05-16T06:41:11.569Z,10.80
2019-05-16T06:44:02.259Z,5.33
2019-05-16T06:47:07.439Z,7.00
2019-05-16T06:49:43.595Z,5.40
2019-05-16T06:52:34.693Z,7.67
2019-05-16T06:55:24.808Z,8.73
2019-05-16T06:58:14.672Z,5.03
2019-05-16T07:01:04.676Z,5.70
2019-05-16T07:03:54.873Z,5.60
2019-05-16T07:06:57.932Z,7.03
2019-05-16T07:09:35.964Z,5.90
2019-05-16T07:12:26.467Z,6.97
2019-05-16T07:15:17.370Z,10.27
2019-05-16T07:18:10.236Z,4.17
2019-05-16T07:21:00.154Z,6.30
2019-05-16T07:23:51.205Z,5.23
2019-05-16T07:26:41.209Z,4.60
2019-05-16T07:29:31.073Z,4.20
2019-05-16T07:32:20.852Z,4.93
2019-05-16T07:35:11.836Z,3.80
2019-05-16T07:38:01.618Z,6.23
2019-05-16T07:40:51.630Z,3.90
2019-05-16T07:43:41.620Z,6.83
2019-05-16T07:46:31.675Z,4.37
2019-05-16T07:49:22.670Z,6.00
2019-05-16T07:52:12.689Z,4.70
2019-05-16T07:55:04.199Z,5.50
2019-05-16T07:57:54.144Z,3.50
2019-05-16T08:00:52.547Z,6.90
2019-05-16T08:03:35.893Z,7.20
2019-05-16T08:06:25.700Z,4.73
2019-05-16T08:09:16.065Z,3.30
2019-05-16T08:12:06.526Z,6.00
2019-05-16T08:14:56.739Z,4.20
2019-05-16T08:17:46.732Z,3.00
2019-05-16T08:20:36.714Z,4.07
2019-05-16T08:23:26.473Z,3.00
2019-05-16T08:26:16.448Z,3.70
2019-05-16T08:29:06.538Z,4.27
2019-05-16T08:31:56.447Z,2.63
2019-05-16T08:34:46.220Z,5.00
2019-05-16T08:37:44.112Z,2.73
2019-05-16T08:40:31.550Z,3.40
2019-05-16T08:43:21.988Z,5.13
2019-05-16T08:46:12.550Z,3.73
2019-05-16T08:49:02.633Z,3.23
2019-05-16T08:51:53.279Z,3.93
2019-05-16T08:54:44.128Z,3.00
2019-05-16T08:57:34.197Z,3.17
2019-05-16T09:00:25.720Z,2.60
2019-05-16T09:03:15.855Z,3.87
2019-05-16T09:06:05.924Z,5.73
2019-05-16T09:09:02.860Z,3.60
2019-05-16T09:11:48.771Z,3.43
2019-05-16T09:14:39.302Z,2.90
2019-05-16T09:17:29.448Z,2.80
2019-05-16T09:20:19.705Z,5.17
2019-05-16T09:23:10.083Z,4.10
2019-05-16T09:25:59.957Z,2.80
2019-05-16T09:28:49.734Z,2.60
2019-05-16T09:31:39.528Z,2.90
2019-05-16T09:34:29.431Z,3.20
2019-05-16T09:37:19.259Z,2.53
2019-05-16T09:40:10.559Z,3.20
2019-05-16T09:43:00.339Z,6.57
2019-05-16T09:45:50.242Z,3.47
2019-05-16T09:48:40.356Z,3.47
2019-05-16T09:51:30.222Z,2.40
2019-05-16T09:54:20.064Z,3.30
2019-05-16T09:57:09.599Z,2.57
2019-05-16T09:59:59.430Z,2.30
2019-05-16T10:02:49.455Z,3.70
2019-05-16T10:05:39.357Z,2.60
2019-05-16T10:08:29.388Z,5.30
2019-05-16T10:11:19.705Z,4.80
2019-05-16T10:14:09.753Z,4.20
2019-05-16T10:16:59.620Z,3.03
2019-05-16T10:19:49.445Z,2.60
2019-05-16T10:22:39.674Z,3.20
2019-05-16T10:25:29.199Z,3.10
2019-05-16T10:28:20.133Z,3.50
2019-05-16T10:31:10.677Z,4.67
2019-05-16T10:34:00.907Z,4.13
2019-05-16T10:36:51.012Z,3.77
2019-05-16T10:39:40.816Z,4.80
2019-05-16T10:42:31.009Z,5.23
2019-05-16T10:45:21.316Z,2.63
2019-05-16T10:48:11.522Z,2.80
2019-05-16T10:51:01.334Z,4.03
2019-05-16T10:54:08.310Z,3.80
2019-05-16T10:56:42.991Z,4.83
2019-05-16T11:02:24.380Z,4.17
2019-05-16T11:05:28.915Z,4.60
2019-05-16T11:08:09.847Z,5.03
2019-05-16T11:10:59.797Z,6.80
2019-05-16T11:13:51.138Z,6.03
2019-05-16T11:16:41.333Z,9.50
2019-05-16T11:19:30.812Z,3.83
2019-05-16T11:22:20.686Z,5.53
2019-05-16T11:25:24.715Z,6.47
2019-05-16T11:28:02.683Z,4.33
2019-05-16T11:30:53.126Z,5.10
2019-05-16T11:33:42.837Z,4.30
2019-05-16T11:36:32.830Z,5.87
2019-05-16T11:39:22.847Z,4.60
2019-05-16T11:42:13.049Z,6.90
2019-05-16T11:45:03.430Z,4.23
2019-05-16T11:47:56.743Z,6.03
2019-05-16T11:50:48.085Z,5.50
2019-05-16T11:53:38.765Z,4.20
2019-05-16T11:56:28.560Z,4.40
2019-05-16T11:59:18.382Z,6.43
2019-05-16T12:02:08.483Z,5.50
2019-05-16T12:04:58.497Z,5.60
2019-05-16T12:07:48.970Z,5.07
2019-05-16T12:10:39.251Z,6.00
2019-05-16T12:13:32.786Z,6.57
2019-05-16T12:16:20.961Z,5.93
2019-05-16T12:19:10.916Z,4.67
2019-05-16T12:22:01.626Z,6.70
2019-05-16T12:24:51.286Z,6.43
2019-05-16T12:27:42.535Z,5.33
2019-05-16T12:30:33.060Z,6.50
2019-05-16T12:33:23.985Z,6.17
2019-05-16T12:36:14.249Z,6.60
2019-05-16T12:39:07.886Z,7.43
2019-05-16T12:42:00.115Z,8.97
2019-05-16T12:44:50.240Z,8.63
2019-05-16T12:47:40.652Z,8.30
2019-05-16T12:50:30.978Z,7.50
2019-05-16T12:53:23.429Z,9.60
2019-05-16T12:56:12.725Z,8.17
2019-05-16T12:59:02.849Z,7.30
2019-05-16T13:01:52.623Z,6.17
2019-05-16T13:04:42.635Z,6.53
2019-05-16T13:07:32.587Z,5.67
2019-05-16T13:10:26.806Z,7.20
2019-05-16T13:13:17.747Z,8.07
2019-05-16T13:16:07.981Z,6.87
2019-05-16T13:18:58.141Z,7.23
2019-05-16T13:21:48.615Z,8.07
2019-05-16T13:24:38.804Z,6.50
2019-05-16T13:27:28.738Z,7.87
2019-05-16T13:30:19.479Z,11.03
2019-05-16T13:33:10.440Z,7.70
2019-05-16T13:36:01.122Z,7.43
2019-05-16T13:38:52.909Z,7.83
2019-05-16T13:41:44.315Z,8.20
2019-05-16T13:44:33.988Z,6.43
2019-05-16T13:47:26.684Z,6.80
2019-05-16T13:50:17.748Z,8.27
2019-05-16T13:53:08.033Z,6.57
2019-05-16T13:55:58.375Z,6.83
2019-05-16T13:58:49.921Z,6.33
2019-05-16T14:01:40.372Z,11.70
2019-05-16T14:04:30.189Z,11.73
2019-05-16T14:07:20.448Z,7.93
2019-05-16T14:10:11.801Z,9.20
2019-05-16T14:13:01.866Z,10.17
2019-05-16T14:15:51.847Z,5.53
2019-05-16T14:18:41.971Z,5.60
2019-05-16T14:21:31.839Z,7.53
2019-05-16T14:24:23.144Z,6.30
2019-05-16T14:27:13.095Z,4.90
2019-05-16T14:30:07.360Z,4.87
2019-05-16T14:33:00.275Z,5.30
2019-05-16T14:35:47.497Z,6.37
2019-05-16T14:38:37.618Z,6.73
2019-05-16T14:41:28.033Z,7.93
2019-05-16T14:44:18.638Z,7.63
2019-05-16T14:47:09.675Z,6.00
2019-05-16T14:49:59.984Z,5.70
2019-05-16T14:52:50.409Z,6.00
2019-05-16T14:55:40.757Z,6.63
2019-05-16T14:58:31.074Z,5.90
2019-05-16T15:01:21.573Z,6.70
2019-05-16T15:04:11.455Z,7.77
2019-05-16T15:07:01.413Z,5.77
2019-05-16T15:09:51.558Z,19.53
2019-05-16T15:12:46.536Z,7.70
2019-05-16T15:15:37.707Z,5.70
2019-05-16T15:18:27.895Z,16.13
2019-05-16T15:21:18.390Z,7.20
2019-05-16T15:24:08.398Z,10.60
2019-05-16T15:27:01.761Z,8.47
2019-05-16T15:29:51.562Z,7.90
2019-05-16T15:32:42.034Z,9.10
2019-05-16T15:35:32.382Z,9.63
2019-05-16T15:38:22.317Z,8.00
2019-05-16T15:41:12.371Z,5.50
2019-05-16T15:44:02.274Z,10.07
2019-05-16T15:47:02.146Z,11.13
2019-05-16T15:49:52.487Z,9.00
2019-05-16T15:52:44.942Z,7.27
2019-05-16T15:55:36.287Z,4.63
2019-05-16T15:58:27.381Z,6.20
2019-05-16T16:01:18.663Z,6.90
2019-05-16T16:04:08.701Z,7.47
2019-05-16T16:07:00.522Z,8.83
2019-05-16T16:09:51.434Z,10.73
2019-05-16T16:12:41.014Z,7.53
2019-05-16T16:15:31.397Z,6.27
2019-05-16T16:18:22.054Z,9.10
2019-05-16T16:21:12.089Z,7.93
2019-05-16T16:24:05.031Z,11.33
2019-05-16T16:26:53.695Z,9.90
2019-05-16T16:29:43.554Z,9.83
2019-05-16T16:32:38.067Z,8.37
2019-05-16T16:35:28.419Z,7.70
2019-05-16T16:38:18.453Z,10.70
2019-05-16T16:41:08.391Z,8.73
2019-05-16T16:43:59.661Z,6.20
2019-05-16T16:46:49.419Z,7.50
2019-05-16T16:49:40.575Z,7.97
2019-05-16T16:52:31.134Z,5.93
2019-05-16T16:55:21.353Z,4.53
2019-05-16T16:58:10.806Z,9.93
2019-05-16T17:01:01.575Z,6.40
2019-05-16T17:03:54.550Z,7.70
2019-05-16T17:06:42.582Z,7.40
2019-05-16T17:09:32.784Z,11.10
2019-05-16T17:12:22.929Z,7.33
2019-05-16T17:15:17.064Z,9.90
2019-05-16T17:18:07.296Z,7.33
2019-05-16T17:20:57.253Z,8.70
2019-05-16T17:23:46.827Z,13.13
2019-05-16T17:26:37.841Z,11.40
2019-05-16T17:29:30.589Z,15.50
2019-05-16T17:32:20.489Z,9.10
2019-05-16T17:35:11.953Z,11.00
2019-05-16T17:38:01.613Z,6.00
2019-05-16T17:40:56.801Z,6.47
2019-05-16T17:43:46.962Z,7.20
2019-05-16T17:46:40.705Z,9.93
2019-05-16T17:49:29.123Z,7.70
2019-05-16T17:52:19.714Z,6.80
2019-05-16T17:55:12.403Z,6.41
2019-05-16T17:58:05.410Z,14.10
2019-05-16T18:00:59.455Z,11.23
2019-05-16T18:03:52.282Z,16.00
2019-05-16T18:06:42.589Z,10.30
2019-05-16T18:09:32.448Z,7.70
2019-05-16T18:12:39.677Z,9.63
2019-05-16T18:15:30.401Z,12.77
2019-05-16T18:18:20.289Z,6.33
2019-05-16T18:21:11.487Z,8.10
2019-05-16T18:24:02.562Z,6.53
2019-05-16T18:26:52.395Z,8.87
2019-05-16T18:29:42.501Z,7.60
2019-05-16T18:32:32.071Z,10.87
2019-05-16T18:35:22.189Z,16.77
2019-05-16T18:38:12.270Z,15.30
2019-05-16T18:41:01.824Z,14.03
2019-05-16T18:43:51.631Z,6.90
2019-05-16T18:46:42.769Z,9.33
2019-05-16T18:49:33.014Z,7.20
2019-05-16T18:52:23.201Z,6.87
2019-05-16T18:55:13.462Z,7.30
2019-05-16T18:58:07.512Z,5.93
2019-05-16T19:00:55.682Z,5.07
2019-05-16T19:03:46.476Z,8.97
2019-05-16T19:06:37.372Z,9.27
2019-05-16T19:09:27.149Z,6.93
2019-05-16T19:12:17.107Z,7.50
2019-05-16T19:15:08.935Z,6.17
2019-05-16T19:17:59.001Z,5.60
2019-05-16T19:20:49.280Z,12.27
2019-05-16T19:23:39.179Z,10.50
2019-05-16T19:26:29.543Z,8.57
2019-05-16T19:29:19.326Z,8.10
2019-05-16T19:32:09.725Z,7.00
2019-05-16T19:35:00.295Z,7.97
2019-05-16T19:37:50.229Z,10.80
2019-05-16T19:40:40.731Z,13.57
2019-05-16T19:43:31.181Z,28.73
2019-05-16T19:46:23.656Z,63.33
2019-05-16T19:49:13.997Z,17.10
2019-05-16T19:52:04.090Z,19.67
2019-05-16T19:54:56.447Z,13.70
2019-05-16T19:57:46.685Z,16.63
2019-05-16T20:00:37.726Z,14.10
2019-05-16T20:03:28.004Z,9.73
2019-05-16T20:06:18.343Z,8.23
2019-05-16T20:09:10.309Z,10.70
2019-05-16T20:12:00.089Z,11.67
2019-05-16T20:15:04.488Z,9.27
2019-05-16T20:17:52.155Z,15.23
2019-05-16T20:20:36.890Z,9.03
2019-05-16T20:23:27.693Z,10.70
2019-05-16T20:26:17.101Z,8.20
2019-05-16T20:29:07.816Z,9.57
2019-05-16T20:31:59.497Z,9.83
2019-05-16T20:34:51.827Z,10.10
2019-05-16T20:37:41.835Z,10.77
2019-05-16T20:40:33.458Z,12.50
2019-05-16T20:43:26.102Z,8.73
2019-05-16T20:46:16.871Z,7.83
2019-05-16T20:49:07.819Z,12.07
2019-05-16T20:51:58.269Z,10.90
2019-05-16T20:54:51.007Z,9.90
2019-05-16T20:57:42.296Z,12.87
2019-05-16T21:00:33.206Z,8.70
2019-05-16T21:03:23.848Z,10.80
2019-05-16T21:06:16.953Z,8.23
2019-05-16T21:09:08.040Z,12.67
2019-05-16T21:11:58.321Z,10.23
2019-05-16T21:14:48.316Z,10.30
2019-05-16T21:17:39.586Z,8.50
2019-05-16T21:20:30.049Z,11.20
2019-05-16T21:23:20.461Z,11.00
2019-05-16T21:26:10.139Z,12.03
2019-05-16T21:29:00.003Z,8.87
2019-05-16T21:31:49.653Z,12.40
2019-05-16T21:34:39.668Z,10.73
2019-05-16T21:37:29.757Z,10.40
2019-05-16T21:40:20.329Z,9.80
2019-05-16T21:43:10.407Z,11.43
2019-05-16T21:45:59.985Z,13.63
2019-05-16T21:48:50.341Z,10.87
2019-05-16T21:51:40.144Z,12.10
2019-05-16T21:54:30.059Z,12.67
2019-05-16T21:57:20.487Z,15.93
2019-05-16T22:00:21.436Z,12.90
2019-05-16T22:03:13.513Z,15.63
2019-05-16T22:06:04.331Z,17.93
2019-05-16T22:08:57.368Z,19.00
2019-05-16T22:11:47.368Z,20.27
2019-05-16T22:14:46.994Z,22.30
2019-05-16T22:17:36.858Z,18.10
2019-05-16T22:20:27.821Z,13.63
2019-05-16T22:23:18.226Z,21.73
2019-05-16T22:26:09.609Z,21.13
2019-05-16T22:28:59.718Z,21.90
2019-05-16T22:31:49.821Z,20.47
2019-05-16T22:34:39.998Z,21.00
2019-05-16T22:37:48.484Z,18.70
2019-05-16T22:40:26.732Z,21.50
2019-05-16T22:43:17.487Z,17.83
2019-05-16T22:46:09.990Z,21.87
2019-05-16T22:48:58.898Z,19.70
2019-05-16T22:51:48.831Z,21.20
2019-05-16T22:54:38.786Z,22.40
2019-05-16T22:57:28.629Z,21.53
2019-05-16T23:00:26.453Z,24.23
2019-05-16T23:03:17.414Z,22.90
2019-05-16T23:06:08.349Z,25.47
2019-05-16T23:08:58.523Z,19.00
2019-05-16T23:11:49.033Z,15.43
2019-05-16T23:14:40.129Z,19.67
2019-05-16T23:17:30.310Z,19.70
2019-05-16T23:20:20.737Z,27.60
2019-05-16T23:23:10.593Z,17.50
2019-05-16T23:26:00.434Z,20.00
2019-05-16T23:28:51.626Z,21.77
2019-05-16T23:31:41.489Z,23.63
2019-05-16T23:34:31.621Z,19.87
2019-05-16T23:37:21.589Z,16.93
2019-05-16T23:40:12.758Z,20.27
2019-05-16T23:43:02.594Z,20.37
2019-05-16T23:45:52.616Z,18.40
2019-05-16T23:48:43.677Z,21.77
2019-05-16T23:51:33.830Z,21.00
2019-05-16T23:54:23.442Z,22.20
2019-05-16T23:57:13.363Z,23.43
